createdAt,value
2018-01-16T00:00:13.678Z,96375.49
2018-01-16T00:00:45.306Z,96375.81
2018-01-16T00:01:16.889Z,96376.33
2018-01-16T00:01:48.466Z,96369.94
2018-01-16T00:02:20.046Z,96375.05
2018-01-16T00:02:51.623Z,96358.50
2018-01-16T00:03:23.204Z,96354.76
2018-01-16T00:03:54.778Z,96364.53
2018-01-16T00:04:26.350Z,96351.34
2018-01-16T00:04:57.923Z,96354.85
2018-01-16T00:05:29.503Z,96344.66
2018-01-16T00:06:01.130Z,96344.66
2018-01-16T00:06:32.711Z,96352.65
2018-01-16T00:07:04.291Z,96363.67
2018-01-16T00:07:35.866Z,96349.74
2018-01-16T00:08:07.439Z,96357.44
2018-01-16T00:08:39.015Z,96348.97
2018-01-16T00:09:10.586Z,96349.38
2018-01-16T00:09:42.171Z,96347.57
2018-01-16T00:10:13.747Z,96337.35
2018-01-16T00:10:45.323Z,96339.97
2018-01-16T00:11:16.903Z,96339.58
2018-01-16T00:11:48.485Z,96342.97
2018-01-16T00:12:20.058Z,96337.95
2018-01-16T00:12:51.635Z,96339.26
2018-01-16T00:13:23.211Z,96346.92
2018-01-16T00:13:54.786Z,96325.27
2018-01-16T00:14:26.398Z,96320.70
2018-01-16T00:14:57.963Z,96327.11
2018-01-16T00:15:29.542Z,96324.50
2018-01-16T00:16:01.119Z,96327.08
2018-01-16T00:16:32.754Z,96332.99
2018-01-16T00:17:04.335Z,96304.92
2018-01-16T00:17:35.915Z,96312.27
2018-01-16T00:18:07.491Z,96314.84
2018-01-16T00:18:39.067Z,96327.17
2018-01-16T00:19:10.639Z,96327.17
2018-01-16T00:19:42.214Z,96302.55
2018-01-16T00:20:13.786Z,96304.24
2018-01-16T00:20:45.358Z,96311.02
2018-01-16T00:21:16.935Z,96311.78
2018-01-16T00:21:48.563Z,96299.08
2018-01-16T00:22:20.143Z,96306.38
2018-01-16T00:22:51.718Z,96317.02
2018-01-16T00:23:23.298Z,96307.66
2018-01-16T00:23:54.875Z,96301.78
2018-01-16T00:24:26.451Z,96299.58
2018-01-16T00:24:58.027Z,96297.80
2018-01-16T00:25:29.603Z,96319.45
2018-01-16T00:26:01.178Z,96287.52
2018-01-16T00:26:32.754Z,96309.70
2018-01-16T00:27:04.378Z,96294.86
2018-01-16T00:27:35.955Z,96306.80
2018-01-16T00:28:07.539Z,96306.89
2018-01-16T00:28:39.127Z,96304.87
2018-01-16T00:29:10.707Z,96292.13
2018-01-16T00:29:42.283Z,96281.91
2018-01-16T00:30:13.858Z,96295.42
2018-01-16T00:30:45.439Z,96287.34
2018-01-16T00:31:17.014Z,96281.88
2018-01-16T00:31:48.594Z,96278.98
2018-01-16T00:32:20.230Z,96283.67
2018-01-16T00:32:51.806Z,96290.11
2018-01-16T00:33:23.387Z,96290.68
2018-01-16T00:33:54.967Z,96281.63
2018-01-16T00:34:26.542Z,96284.62
2018-01-16T00:34:58.118Z,96274.73
2018-01-16T00:35:29.695Z,96276.42
2018-01-16T00:36:01.271Z,96272.98
2018-01-16T00:36:32.846Z,96271.28
2018-01-16T00:37:04.423Z,96266.95
2018-01-16T00:37:36.055Z,96275.95
2018-01-16T00:38:07.631Z,96258.39
2018-01-16T00:38:39.202Z,96265.64
2018-01-16T00:39:10.782Z,96264.39
2018-01-16T00:39:42.362Z,96251.27
2018-01-16T00:40:13.938Z,96271.25
2018-01-16T00:40:45.514Z,96249.13
2018-01-16T00:41:17.091Z,96256.79
2018-01-16T00:41:48.670Z,96261.48
2018-01-16T00:42:20.243Z,96252.52
2018-01-16T00:42:51.875Z,96269.56
2018-01-16T00:43:23.462Z,96261.60
2018-01-16T00:43:55.034Z,96266.36
2018-01-16T00:44:26.617Z,96271.02
2018-01-16T00:44:58.191Z,96247.59
2018-01-16T00:45:29.766Z,96265.91
2018-01-16T00:46:01.347Z,96267.13
2018-01-16T00:46:32.922Z,96261.19
2018-01-16T00:47:04.494Z,96266.20
2018-01-16T00:47:36.070Z,96256.97
2018-01-16T00:48:07.643Z,96248.12
2018-01-16T00:48:39.223Z,96256.65
2018-01-16T00:49:10.794Z,96241.91
2018-01-16T00:49:42.370Z,96235.42
2018-01-16T00:50:13.943Z,96233.73
2018-01-16T00:50:45.519Z,96249.88
2018-01-16T00:51:17.094Z,96249.52
2018-01-16T00:51:48.674Z,96235.92
2018-01-16T00:52:20.250Z,96231.23
2018-01-16T00:52:51.822Z,96243.02
2018-01-16T00:53:23.455Z,96225.17
2018-01-16T00:53:55.035Z,96238.74
2018-01-16T00:54:26.610Z,96234.41
2018-01-16T00:54:58.191Z,96233.16
2018-01-16T00:55:29.778Z,96237.50
2018-01-16T00:56:01.352Z,96221.37
2018-01-16T00:56:32.931Z,96237.14
2018-01-16T00:57:04.502Z,96225.74
2018-01-16T00:57:36.079Z,96231.23
2018-01-16T00:58:07.663Z,96215.11
2018-01-16T00:58:39.307Z,96219.36
2018-01-16T00:59:10.882Z,96213.73
2018-01-16T00:59:42.458Z,96235.09
2018-01-16T01:00:14.035Z,96225.71
2018-01-16T01:00:45.606Z,96217.97
2018-01-16T01:01:17.179Z,96211.14
2018-01-16T01:01:48.760Z,96221.06
2018-01-16T01:02:20.335Z,96216.44
2018-01-16T01:02:51.915Z,96217.93
2018-01-16T01:03:23.486Z,96215.44
2018-01-16T01:03:55.115Z,96223.09
2018-01-16T01:04:26.690Z,96207.45
2018-01-16T01:04:58.263Z,96201.87
2018-01-16T01:05:29.843Z,96210.30
2018-01-16T01:06:01.419Z,96196.34
2018-01-16T01:06:32.999Z,96201.96
2018-01-16T01:07:04.582Z,96197.69
2018-01-16T01:07:36.155Z,96210.55
2018-01-16T01:08:07.738Z,96200.81
2018-01-16T01:08:39.310Z,96210.55
2018-01-16T01:09:10.943Z,96210.61
2018-01-16T01:09:42.523Z,96206.87
2018-01-16T01:10:14.099Z,96213.16
2018-01-16T01:10:45.675Z,96210.22
2018-01-16T01:11:17.252Z,96208.11
2018-01-16T01:11:48.844Z,96199.38
2018-01-16T01:12:20.431Z,96196.82
2018-01-16T01:12:52.008Z,96185.91
2018-01-16T01:13:23.594Z,96205.44
2018-01-16T01:13:55.177Z,96189.13
2018-01-16T01:14:26.810Z,96211.67
2018-01-16T01:14:58.382Z,96204.84
2018-01-16T01:15:29.954Z,96195.36
2018-01-16T01:16:01.535Z,96198.48
2018-01-16T01:16:33.115Z,96193.41
2018-01-16T01:17:04.701Z,96188.39
2018-01-16T01:17:36.279Z,96188.01
2018-01-16T01:18:07.850Z,96179.48
2018-01-16T01:18:39.426Z,96173.55
2018-01-16T01:19:11.003Z,96172.81
2018-01-16T01:19:42.630Z,96157.91
2018-01-16T01:20:14.202Z,96173.67
2018-01-16T01:20:45.774Z,96160.52
2018-01-16T01:21:17.351Z,96168.19
2018-01-16T01:21:48.932Z,96152.45
2018-01-16T01:22:20.506Z,96141.79
2018-01-16T01:22:52.083Z,96153.66
2018-01-16T01:23:23.654Z,96158.45
2018-01-16T01:23:55.238Z,96135.91
2018-01-16T01:24:26.814Z,96138.34
2018-01-16T01:24:58.411Z,96132.85
2018-01-16T01:25:29.983Z,96143.13
2018-01-16T01:26:01.559Z,96146.98
2018-01-16T01:26:33.135Z,96154.65
2018-01-16T01:27:04.711Z,96134.19
2018-01-16T01:27:36.290Z,96131.13
2018-01-16T01:28:07.870Z,96127.72
2018-01-16T01:28:39.442Z,96131.55
2018-01-16T01:29:11.014Z,96122.58
2018-01-16T01:29:42.590Z,96134.19
2018-01-16T01:30:14.219Z,96119.67
2018-01-16T01:30:45.798Z,96129.44
2018-01-16T01:31:17.379Z,96124.33
2018-01-16T01:31:48.962Z,96120.53
2018-01-16T01:32:20.535Z,96115.42
2018-01-16T01:32:52.111Z,96128.67
2018-01-16T01:33:23.683Z,96123.98
2018-01-16T01:33:55.258Z,96120.47
2018-01-16T01:34:26.835Z,96131.55
2018-01-16T01:34:58.406Z,96121.05
2018-01-16T01:35:30.039Z,96122.29
2018-01-16T01:36:01.614Z,96110.86
2018-01-16T01:36:33.186Z,96108.27
2018-01-16T01:37:04.758Z,96122.80
2018-01-16T01:37:36.335Z,96113.83
2018-01-16T01:38:07.911Z,96108.30
2018-01-16T01:38:39.486Z,96113.34
2018-01-16T01:39:11.069Z,96102.72
2018-01-16T01:39:42.642Z,96111.24
2018-01-16T01:40:14.214Z,96103.23
2018-01-16T01:40:45.846Z,96108.41
2018-01-16T01:41:17.427Z,96108.41
2018-01-16T01:41:49.007Z,96117.78
2018-01-16T01:42:20.586Z,96108.11
2018-01-16T01:42:52.163Z,96122.16
2018-01-16T01:43:23.734Z,96110.98
2018-01-16T01:43:55.315Z,96099.08
2018-01-16T01:44:26.887Z,96107.66
2018-01-16T01:44:58.462Z,96118.73
2018-01-16T01:45:30.037Z,96099.88
2018-01-16T01:46:01.672Z,96108.41
2018-01-16T01:46:33.251Z,96127.10
2018-01-16T01:47:04.859Z,96120.30
2018-01-16T01:47:36.434Z,96110.03
2018-01-16T01:48:08.006Z,96114.69
2018-01-16T01:48:39.587Z,96124.48
2018-01-16T01:49:11.163Z,96133.42
2018-01-16T01:49:42.739Z,96125.00
2018-01-16T01:50:14.319Z,96125.41
2018-01-16T01:50:45.895Z,96131.28
2018-01-16T01:51:17.531Z,96130.84
2018-01-16T01:51:49.107Z,96124.88
2018-01-16T01:52:20.683Z,96120.53
2018-01-16T01:52:52.254Z,96121.48
2018-01-16T01:53:23.827Z,96120.09
2018-01-16T01:53:55.407Z,96113.70
2018-01-16T01:54:26.983Z,96115.48
2018-01-16T01:54:58.555Z,96117.75
2018-01-16T01:55:30.134Z,96114.34
2018-01-16T01:56:01.711Z,96106.74
2018-01-16T01:56:33.346Z,96103.33
2018-01-16T01:57:04.926Z,96108.23
2018-01-16T01:57:36.502Z,96097.48
2018-01-16T01:58:08.087Z,96101.73
2018-01-16T01:58:39.671Z,96102.88
2018-01-16T01:59:11.243Z,96110.98
2018-01-16T01:59:42.827Z,96086.57
2018-01-16T02:00:14.403Z,96088.62
2018-01-16T02:00:45.975Z,96079.30
2018-01-16T02:01:17.551Z,96074.06
2018-01-16T02:01:49.122Z,96087.59
2018-01-16T02:02:20.694Z,96087.95
2018-01-16T02:02:52.275Z,96078.24
2018-01-16T02:03:23.858Z,96094.39
2018-01-16T02:03:55.430Z,96095.77
2018-01-16T02:04:27.011Z,96085.48
2018-01-16T02:04:58.583Z,96089.31
2018-01-16T02:05:30.159Z,96090.66
2018-01-16T02:06:01.734Z,96112.20
2018-01-16T02:06:33.311Z,96072.56
2018-01-16T02:07:04.941Z,96096.34
2018-01-16T02:07:36.514Z,96095.06
2018-01-16T02:08:08.086Z,96081.88
2018-01-16T02:08:39.662Z,96102.22
2018-01-16T02:09:11.235Z,96092.48
2018-01-16T02:09:42.807Z,96091.71
2018-01-16T02:10:14.384Z,96108.85
2018-01-16T02:10:45.963Z,96089.22
2018-01-16T02:11:17.534Z,96110.80
2018-01-16T02:11:49.106Z,96096.41
2018-01-16T02:12:21.571Z,96098.55
2018-01-16T02:12:53.146Z,96097.23
2018-01-16T02:13:24.719Z,96101.09
2018-01-16T02:13:56.291Z,96109.55
2018-01-16T02:14:27.873Z,96113.48
2018-01-16T02:14:59.450Z,96116.39
2018-01-16T02:15:31.027Z,96108.76
2018-01-16T02:16:02.598Z,96110.80
2018-01-16T02:16:34.178Z,96103.27
2018-01-16T02:17:05.759Z,96099.88
2018-01-16T02:17:37.386Z,96109.30
2018-01-16T02:18:08.959Z,96113.13
2018-01-16T02:18:40.534Z,96113.13
2018-01-16T02:19:12.106Z,96107.58
2018-01-16T02:19:43.687Z,96121.14
2018-01-16T02:20:15.268Z,96110.58
2018-01-16T02:20:46.847Z,96112.07
2018-01-16T02:21:18.418Z,96122.70
2018-01-16T02:21:49.999Z,96116.80
2018-01-16T02:22:21.579Z,96116.77
2018-01-16T02:22:53.206Z,96122.29
2018-01-16T02:23:24.778Z,96116.80
2018-01-16T02:23:56.351Z,96103.14
2018-01-16T02:24:27.922Z,96102.27
2018-01-16T02:24:59.506Z,96110.86
2018-01-16T02:25:31.087Z,96105.21
2018-01-16T02:26:02.667Z,96114.56
2018-01-16T02:26:34.247Z,96106.91
2018-01-16T02:27:05.828Z,96107.83
2018-01-16T02:27:37.407Z,96116.70
2018-01-16T02:28:09.071Z,96112.55
2018-01-16T02:28:40.646Z,96112.23
2018-01-16T02:29:12.218Z,96105.34
2018-01-16T02:29:43.790Z,96086.98
2018-01-16T02:30:15.362Z,96088.42
2018-01-16T02:30:46.938Z,96099.11
2018-01-16T02:31:18.510Z,96101.92
2018-01-16T02:31:50.083Z,96090.15
2018-01-16T02:32:21.718Z,96088.88
2018-01-16T02:32:53.274Z,96074.70
2018-01-16T02:33:24.931Z,96087.53
2018-01-16T02:33:56.510Z,96074.25
2018-01-16T02:34:28.082Z,96071.73
2018-01-16T02:34:59.655Z,96065.03
2018-01-16T02:35:31.230Z,96060.75
2018-01-16T02:36:02.811Z,96079.45
2018-01-16T02:36:34.382Z,96061.23
2018-01-16T02:37:05.960Z,96064.14
2018-01-16T02:37:37.534Z,96064.14
2018-01-16T02:38:09.108Z,96053.13
2018-01-16T02:38:40.739Z,96060.05
2018-01-16T02:39:12.315Z,96057.05
2018-01-16T02:39:43.891Z,96063.44
2018-01-16T02:40:15.471Z,96041.67
2018-01-16T02:40:47.052Z,96048.75
2018-01-16T02:41:18.631Z,96047.86
2018-01-16T02:41:50.207Z,96039.78
2018-01-16T02:42:21.787Z,96041.52
2018-01-16T02:42:53.366Z,96055.42
2018-01-16T02:43:24.943Z,96041.86
2018-01-16T02:43:56.580Z,96032.16
2018-01-16T02:44:28.162Z,96022.74
2018-01-16T02:44:59.742Z,96040.11
2018-01-16T02:45:31.326Z,96010.42
2018-01-16T02:46:02.906Z,96028.30
2018-01-16T02:46:34.478Z,96021.84
2018-01-16T02:47:06.062Z,96031.58
2018-01-16T02:47:37.638Z,96027.84
2018-01-16T02:48:09.211Z,96011.70
2018-01-16T02:48:40.786Z,96026.16
2018-01-16T02:49:12.411Z,96013.88
2018-01-16T02:49:43.986Z,96015.66
2018-01-16T02:50:15.559Z,96017.83
2018-01-16T02:50:47.139Z,96015.76
2018-01-16T02:51:18.731Z,96010.59
2018-01-16T02:51:50.311Z,96005.41
2018-01-16T02:52:21.891Z,96008.38
2018-01-16T02:52:53.467Z,96007.14
2018-01-16T02:53:25.047Z,96011.99
2018-01-16T02:53:56.627Z,96009.13
2018-01-16T02:54:28.259Z,95993.70
2018-01-16T02:54:59.839Z,95996.39
2018-01-16T02:55:31.423Z,95997.70
2018-01-16T02:56:03.003Z,95992.28
2018-01-16T02:56:34.579Z,95990.66
2018-01-16T02:57:06.156Z,96009.38
2018-01-16T02:57:37.730Z,95978.30
2018-01-16T02:58:09.311Z,95996.97
2018-01-16T02:58:40.887Z,95989.38
2018-01-16T02:59:12.462Z,95995.34
2018-01-16T02:59:44.090Z,95994.92
2018-01-16T03:00:15.671Z,95983.06
2018-01-16T03:00:47.246Z,95982.33
2018-01-16T03:01:18.823Z,95992.02
2018-01-16T03:01:50.399Z,95987.72
2018-01-16T03:02:21.971Z,95995.05
2018-01-16T03:02:53.550Z,95989.82
2018-01-16T03:03:25.154Z,95974.06
2018-01-16T03:03:56.732Z,95980.86
2018-01-16T03:04:28.303Z,95979.58
2018-01-16T03:04:59.935Z,95996.55
2018-01-16T03:05:31.510Z,95983.34
2018-01-16T03:06:03.083Z,95975.65
2018-01-16T03:06:34.666Z,95972.14
2018-01-16T03:07:06.239Z,95978.23
2018-01-16T03:07:37.814Z,95979.09
2018-01-16T03:08:09.386Z,95969.72
2018-01-16T03:08:40.962Z,95975.65
2018-01-16T03:09:12.534Z,95967.58
2018-01-16T03:09:44.111Z,95972.17
2018-01-16T03:10:15.743Z,95971.09
2018-01-16T03:10:47.327Z,95984.30
2018-01-16T03:11:18.907Z,95972.50
2018-01-16T03:11:50.482Z,95962.23
2018-01-16T03:12:22.055Z,95972.15
2018-01-16T03:12:53.635Z,95959.67
2018-01-16T03:13:25.214Z,95961.87
2018-01-16T03:13:56.786Z,95978.47
2018-01-16T03:14:28.358Z,95972.50
2018-01-16T03:14:59.934Z,95977.02
2018-01-16T03:15:31.562Z,95978.91
2018-01-16T03:16:03.142Z,95970.11
2018-01-16T03:16:34.715Z,95965.77
2018-01-16T03:17:06.299Z,95963.25
2018-01-16T03:17:37.874Z,95960.80
2018-01-16T03:18:09.446Z,95964.75
2018-01-16T03:18:41.027Z,95957.41
2018-01-16T03:19:12.607Z,95964.30
2018-01-16T03:19:44.182Z,95970.30
2018-01-16T03:20:15.762Z,95968.70
2018-01-16T03:20:47.338Z,95948.30
2018-01-16T03:21:18.920Z,95952.53
2018-01-16T03:21:50.495Z,95952.13
2018-01-16T03:22:22.084Z,95948.05
2018-01-16T03:22:53.659Z,95952.31
2018-01-16T03:23:25.234Z,95942.49
2018-01-16T03:23:56.811Z,95937.42
2018-01-16T03:24:28.383Z,95942.55
2018-01-16T03:24:59.955Z,95937.52
2018-01-16T03:25:31.535Z,95945.20
2018-01-16T03:26:03.162Z,95929.09
2018-01-16T03:26:34.738Z,95933.21
2018-01-16T03:27:06.319Z,95931.13
2018-01-16T03:27:37.890Z,95922.97
2018-01-16T03:28:09.470Z,95931.87
2018-01-16T03:28:41.043Z,95915.59
2018-01-16T03:29:12.618Z,95928.64
2018-01-16T03:29:44.195Z,95926.92
2018-01-16T03:30:15.771Z,95915.97
2018-01-16T03:30:47.348Z,95925.19
2018-01-16T03:31:18.964Z,95919.55
2018-01-16T03:31:50.538Z,95910.64
2018-01-16T03:32:22.115Z,95905.22
2018-01-16T03:32:53.695Z,95897.16
2018-01-16T03:33:25.271Z,95905.64
2018-01-16T03:33:56.847Z,95903.47
2018-01-16T03:34:28.427Z,95902.64
2018-01-16T03:35:00.014Z,95900.91
2018-01-16T03:35:31.594Z,95896.61
2018-01-16T03:36:03.179Z,95899.98
2018-01-16T03:36:34.806Z,95877.43
2018-01-16T03:37:06.392Z,95889.36
2018-01-16T03:37:37.966Z,95896.54
2018-01-16T03:38:09.543Z,95889.74
2018-01-16T03:38:41.122Z,95881.58
2018-01-16T03:39:12.694Z,95881.19
2018-01-16T03:39:44.266Z,95870.92
2018-01-16T03:40:15.842Z,95874.12
2018-01-16T03:40:47.422Z,95871.89
2018-01-16T03:41:18.994Z,95874.03
2018-01-16T03:41:50.635Z,95869.34
2018-01-16T03:42:22.211Z,95873.48
2018-01-16T03:42:53.789Z,95871.27
2018-01-16T03:43:25.363Z,95867.58
2018-01-16T03:43:56.942Z,95859.34
2018-01-16T03:44:28.518Z,95868.30
2018-01-16T03:45:00.198Z,95865.30
2018-01-16T03:45:31.783Z,95859.78
2018-01-16T03:46:03.359Z,95857.64
2018-01-16T03:46:34.943Z,95861.38
2018-01-16T03:47:06.575Z,95855.95
2018-01-16T03:47:38.146Z,95854.86
2018-01-16T03:48:09.723Z,95865.90
2018-01-16T03:48:41.302Z,95855.37
2018-01-16T03:49:12.874Z,95864.59
2018-01-16T03:49:44.451Z,95859.65
2018-01-16T03:50:16.031Z,95863.10
2018-01-16T03:50:47.606Z,95864.76
2018-01-16T03:51:19.178Z,95861.38
2018-01-16T03:51:50.751Z,95870.28
2018-01-16T03:52:22.383Z,95847.61
2018-01-16T03:52:54.013Z,95859.83
2018-01-16T03:53:25.571Z,95847.92
2018-01-16T03:53:57.147Z,95853.86
2018-01-16T03:54:28.721Z,95846.27
2018-01-16T03:55:00.295Z,95854.00
2018-01-16T03:55:31.874Z,95837.44
2018-01-16T03:56:03.450Z,95845.98
2018-01-16T03:56:35.022Z,95845.03
2018-01-16T03:57:06.598Z,95848.34
2018-01-16T03:57:38.179Z,95845.69
2018-01-16T03:58:09.759Z,95841.92
2018-01-16T03:58:41.335Z,95852.97
2018-01-16T03:59:12.915Z,95849.03
2018-01-16T03:59:44.490Z,95852.13
2018-01-16T04:00:16.068Z,95838.34
2018-01-16T04:00:47.646Z,95823.92
2018-01-16T04:01:19.219Z,95847.72
2018-01-16T04:01:50.798Z,95840.92
2018-01-16T04:02:22.370Z,95848.93
2018-01-16T04:02:54.007Z,95824.67
2018-01-16T04:03:25.582Z,95840.03
2018-01-16T04:03:57.170Z,95840.52
2018-01-16T04:04:28.751Z,95845.72
2018-01-16T04:05:00.326Z,95835.05
2018-01-16T04:05:31.906Z,95847.55
2018-01-16T04:06:03.478Z,95837.68
2018-01-16T04:06:35.063Z,95846.27
2018-01-16T04:07:06.638Z,95836.09
2018-01-16T04:07:38.215Z,95843.38
2018-01-16T04:08:09.842Z,95842.51
2018-01-16T04:08:41.419Z,95840.33
2018-01-16T04:09:12.990Z,95845.03
2018-01-16T04:09:44.562Z,95841.64
2018-01-16T04:10:16.134Z,95855.23
2018-01-16T04:10:47.714Z,95862.03
2018-01-16T04:11:19.291Z,95839.13
2018-01-16T04:11:50.870Z,95851.12
2018-01-16T04:12:22.446Z,95845.20
2018-01-16T04:12:54.024Z,95838.91
2018-01-16T04:13:25.655Z,95843.19
2018-01-16T04:13:57.235Z,95852.16
2018-01-16T04:14:28.815Z,95838.09
2018-01-16T04:15:00.395Z,95850.41
2018-01-16T04:15:31.970Z,95840.13
2018-01-16T04:16:03.548Z,95848.37
2018-01-16T04:16:35.132Z,95848.30
2018-01-16T04:17:06.701Z,95854.34
2018-01-16T04:17:38.278Z,95850.85
2018-01-16T04:18:09.859Z,95844.02
2018-01-16T04:18:41.491Z,95844.95
2018-01-16T04:19:13.064Z,95845.05
2018-01-16T04:19:44.650Z,95854.02
2018-01-16T04:20:16.236Z,95855.44
2018-01-16T04:20:47.812Z,95847.30
2018-01-16T04:21:19.439Z,95844.73
2018-01-16T04:21:50.994Z,95850.74
2018-01-16T04:22:22.566Z,95829.91
2018-01-16T04:22:54.143Z,95842.22
2018-01-16T04:23:25.725Z,95845.19
2018-01-16T04:23:57.350Z,95839.70
2018-01-16T04:24:28.934Z,95834.98
2018-01-16T04:25:00.510Z,95849.02
2018-01-16T04:25:32.082Z,95856.16
2018-01-16T04:26:03.671Z,95846.27
2018-01-16T04:26:35.251Z,95838.70
2018-01-16T04:27:06.822Z,95852.84
2018-01-16T04:27:38.399Z,95837.53
2018-01-16T04:28:09.974Z,95828.28
2018-01-16T04:28:41.550Z,95834.28
2018-01-16T04:29:13.183Z,95846.59
2018-01-16T04:29:44.763Z,95831.80
2018-01-16T04:30:16.339Z,95834.42
2018-01-16T04:30:47.939Z,95830.14
2018-01-16T04:31:19.515Z,95842.11
2018-01-16T04:31:51.087Z,95833.63
2018-01-16T04:32:22.671Z,95826.80
2018-01-16T04:32:54.251Z,95836.14
2018-01-16T04:33:25.822Z,95839.98
2018-01-16T04:33:57.399Z,95816.14
2018-01-16T04:34:28.978Z,95829.31
2018-01-16T04:35:00.555Z,95819.59
2018-01-16T04:35:32.135Z,95833.17
2018-01-16T04:36:03.711Z,95834.04
2018-01-16T04:36:35.296Z,95828.91
2018-01-16T04:37:06.871Z,95824.66
2018-01-16T04:37:38.454Z,95827.25
2018-01-16T04:38:10.026Z,95824.63
2018-01-16T04:38:41.598Z,95837.39
2018-01-16T04:39:13.170Z,95831.73
2018-01-16T04:39:44.811Z,95826.77
2018-01-16T04:40:16.391Z,95820.86
2018-01-16T04:40:47.971Z,95832.32
2018-01-16T04:41:19.546Z,95827.62
2018-01-16T04:41:51.127Z,95826.77
2018-01-16T04:42:22.704Z,95828.05
2018-01-16T04:42:54.284Z,95832.56
2018-01-16T04:43:25.858Z,95836.80
2018-01-16T04:43:57.430Z,95843.22
2018-01-16T04:44:29.010Z,95836.91
2018-01-16T04:45:00.643Z,95835.63
2018-01-16T04:45:32.222Z,95833.91
2018-01-16T04:46:03.799Z,95837.84
2018-01-16T04:46:35.380Z,95829.25
2018-01-16T04:47:06.954Z,95825.39
2018-01-16T04:47:38.534Z,95823.66
2018-01-16T04:48:10.107Z,95823.11
2018-01-16T04:48:41.682Z,95823.63
2018-01-16T04:49:13.264Z,95824.08
2018-01-16T04:49:44.838Z,95823.18
2018-01-16T04:50:16.446Z,95824.08
2018-01-16T04:50:48.026Z,95818.97
2018-01-16T04:51:19.603Z,95826.31
2018-01-16T04:51:51.182Z,95816.91
2018-01-16T04:52:22.763Z,95821.66
2018-01-16T04:52:54.343Z,95821.56
2018-01-16T04:53:25.918Z,95815.97
2018-01-16T04:53:57.490Z,95824.84
2018-01-16T04:54:29.062Z,95813.91
2018-01-16T04:55:00.646Z,95811.80
2018-01-16T04:55:32.287Z,95818.18
2018-01-16T04:56:03.858Z,95798.94
2018-01-16T04:56:35.430Z,95811.77
2018-01-16T04:57:07.006Z,95807.52
2018-01-16T04:57:38.591Z,95804.62
2018-01-16T04:58:10.162Z,95808.45
2018-01-16T04:58:41.738Z,95805.90
2018-01-16T04:59:13.311Z,95785.83
2018-01-16T04:59:44.886Z,95800.31
2018-01-16T05:00:16.458Z,95809.66
2018-01-16T05:00:48.106Z,95794.72
2018-01-16T05:01:19.678Z,95808.83
2018-01-16T05:01:51.254Z,95800.73
2018-01-16T05:02:22.826Z,95803.73
2018-01-16T05:02:54.399Z,95815.28
2018-01-16T05:03:25.980Z,95796.55
2018-01-16T05:03:57.554Z,95784.79
2018-01-16T05:04:29.130Z,95814.90
2018-01-16T05:05:00.706Z,95808.08
2018-01-16T05:05:32.287Z,95803.73
2018-01-16T05:06:03.914Z,95808.08
2018-01-16T05:06:35.486Z,95811.38
2018-01-16T05:07:07.071Z,95811.03
2018-01-16T05:07:38.647Z,95808.93
2018-01-16T05:08:10.219Z,95805.14
2018-01-16T05:08:41.803Z,95808.52
2018-01-16T05:09:13.378Z,95809.77
2018-01-16T05:09:44.955Z,95813.48
2018-01-16T05:10:16.526Z,95807.17
2018-01-16T05:10:48.110Z,95802.45
2018-01-16T05:11:19.738Z,95815.97
2018-01-16T05:11:51.315Z,95813.87
2018-01-16T05:12:22.894Z,95814.77
2018-01-16T05:12:54.475Z,95806.63
2018-01-16T05:13:26.054Z,95800.97
2018-01-16T05:13:57.639Z,95814.52
2018-01-16T05:14:29.219Z,95804.35
2018-01-16T05:15:00.803Z,95793.69
2018-01-16T05:15:32.378Z,95806.00
2018-01-16T05:16:03.959Z,95790.17
2018-01-16T05:16:35.598Z,95788.94
2018-01-16T05:17:07.178Z,95797.07
2018-01-16T05:17:38.758Z,95803.38
2018-01-16T05:18:10.334Z,95785.59
2018-01-16T05:18:41.915Z,95797.14
2018-01-16T05:19:13.495Z,95806.48
2018-01-16T05:19:45.071Z,95794.11
2018-01-16T05:20:16.646Z,95787.25
2018-01-16T05:20:48.218Z,95788.63
2018-01-16T05:21:19.801Z,95784.31
2018-01-16T05:21:51.483Z,95786.03
2018-01-16T05:22:23.047Z,95787.73
2018-01-16T05:22:54.626Z,95784.31
2018-01-16T05:23:26.200Z,95791.55
2018-01-16T05:23:57.783Z,95787.24
2018-01-16T05:24:29.363Z,95789.76
2018-01-16T05:25:00.939Z,95794.45
2018-01-16T05:25:32.511Z,95791.07
2018-01-16T05:26:04.092Z,95789.41
2018-01-16T05:26:35.666Z,95787.25
2018-01-16T05:27:07.270Z,95791.48
2018-01-16T05:27:38.855Z,95786.90
2018-01-16T05:28:10.434Z,95789.80
2018-01-16T05:28:42.013Z,95795.17
2018-01-16T05:29:13.586Z,95792.17
2018-01-16T05:29:45.163Z,95790.90
2018-01-16T05:30:16.742Z,95797.59
2018-01-16T05:30:48.318Z,95794.24
2018-01-16T05:31:19.899Z,95790.41
2018-01-16T05:31:51.474Z,95793.73
2018-01-16T05:32:23.102Z,95794.24
2018-01-16T05:32:54.682Z,95803.52
2018-01-16T05:33:26.259Z,95796.80
2018-01-16T05:33:57.840Z,95795.97
2018-01-16T05:34:29.414Z,95803.18
2018-01-16T05:35:00.991Z,95785.30
2018-01-16T05:35:32.575Z,95786.17
2018-01-16T05:36:04.146Z,95794.69
2018-01-16T05:36:35.718Z,95792.41
2018-01-16T05:37:07.298Z,95789.86
2018-01-16T05:37:38.931Z,95796.20
2018-01-16T05:38:10.503Z,95796.83
2018-01-16T05:38:42.074Z,95801.97
2018-01-16T05:39:13.647Z,95794.41
2018-01-16T05:39:45.227Z,95792.00
2018-01-16T05:40:16.805Z,95793.25
2018-01-16T05:40:48.382Z,95786.06
2018-01-16T05:41:19.959Z,95790.69
2018-01-16T05:41:51.531Z,95787.66
2018-01-16T05:42:23.110Z,95778.37
2018-01-16T05:42:54.740Z,95790.17
2018-01-16T05:43:26.335Z,95786.80
2018-01-16T05:43:57.915Z,95780.38
2018-01-16T05:44:29.490Z,95787.20
2018-01-16T05:45:01.062Z,95778.31
2018-01-16T05:45:32.638Z,95787.66
2018-01-16T05:46:04.218Z,95786.06
2018-01-16T05:46:35.799Z,95782.20
2018-01-16T05:47:07.374Z,95786.86
2018-01-16T05:47:38.946Z,95785.59
2018-01-16T05:48:10.574Z,95787.76
2018-01-16T05:48:42.160Z,95782.66
2018-01-16T05:49:13.731Z,95781.34
2018-01-16T05:49:45.315Z,95779.23
2018-01-16T05:50:16.899Z,95775.75
2018-01-16T05:50:48.483Z,95778.31
2018-01-16T05:51:20.054Z,95778.41
2018-01-16T05:51:51.630Z,95782.34
2018-01-16T05:52:23.210Z,95779.31
2018-01-16T05:52:54.783Z,95775.48
2018-01-16T05:53:26.359Z,95783.93
2018-01-16T05:53:57.939Z,95775.89
2018-01-16T05:54:29.523Z,95779.20
2018-01-16T05:55:01.103Z,95777.00
2018-01-16T05:55:32.678Z,95777.10
2018-01-16T05:56:04.251Z,95780.17
2018-01-16T05:56:35.831Z,95785.69
2018-01-16T05:57:07.414Z,95790.34
2018-01-16T05:57:38.987Z,95785.80
2018-01-16T05:58:10.567Z,95779.41
2018-01-16T05:58:42.194Z,95786.69
2018-01-16T05:59:13.775Z,95780.41
2018-01-16T05:59:45.356Z,95794.41
2018-01-16T06:00:16.939Z,95786.76
2018-01-16T06:00:48.514Z,95791.06
2018-01-16T06:01:20.087Z,95788.03
2018-01-16T06:01:51.658Z,95787.27
2018-01-16T06:02:23.230Z,95783.96
2018-01-16T06:02:54.807Z,95770.79
2018-01-16T06:03:26.387Z,95788.72
2018-01-16T06:03:57.995Z,95765.82
2018-01-16T06:04:29.575Z,95769.27
2018-01-16T06:05:01.157Z,95774.38
2018-01-16T06:05:32.739Z,95763.20
2018-01-16T06:06:04.311Z,95761.55
2018-01-16T06:06:35.886Z,95758.20
2018-01-16T06:07:07.458Z,95761.65
2018-01-16T06:07:39.030Z,95770.13
2018-01-16T06:08:10.611Z,95750.58
2018-01-16T06:08:42.183Z,95757.23
2018-01-16T06:09:13.810Z,95757.75
2018-01-16T06:09:45.391Z,95764.13
2018-01-16T06:10:16.966Z,95767.55
2018-01-16T06:10:48.542Z,95762.58